sensor_id;sensor_type;location;lat;lon;timestamp;P1;durP1;ratioP1;P2;durP2;ratioP2
1402;SDS011;696;48.546;9.896;2022-08-14T00:00:40;1.20;;;1.10;;
1402;SDS011;696;48.546;9.896;2022-08-14T00:03:05;1.33;;;1.23;;
1402;SDS011;696;48.546;9.896;2022-08-14T00:05:30;1.55;;;1.30;;
1402;SDS011;696;48.546;9.896;2022-08-14T00:07:56;1.30;;;1.20;;
1402;SDS011;696;48.546;9.896;2022-08-14T00:10:21;1.67;;;1.05;;
1402;SDS011;696;48.546;9.896;2022-08-14T00:12:49;2.35;;;1.50;;
1402;SDS011;696;48.546;9.896;2022-08-14T00:15:17;3.22;;;1.45;;
1402;SDS011;696;48.546;9.896;2022-08-14T00:17:43;1.15;;;1.10;;
1402;SDS011;696;48.546;9.896;2022-08-14T00:20:09;1.48;;;1.15;;
1402;SDS011;696;48.546;9.896;2022-08-14T00:22:36;2.17;;;1.45;;
1402;SDS011;696;48.546;9.896;2022-08-14T00:25:02;2.00;;;1.50;;
1402;SDS011;696;48.546;9.896;2022-08-14T00:27:28;2.35;;;1.42;;
1402;SDS011;696;48.546;9.896;2022-08-14T00:29:54;7.47;;;1.35;;
1402;SDS011;696;48.546;9.896;2022-08-14T00:32:19;1.38;;;1.25;;
1402;SDS011;696;48.546;9.896;2022-08-14T00:34:44;1.77;;;1.25;;
1402;SDS011;696;48.546;9.896;2022-08-14T00:37:10;1.88;;;1.15;;
1402;SDS011;696;48.546;9.896;2022-08-14T00:39:35;1.40;;;1.20;;
1402;SDS011;696;48.546;9.896;2022-08-14T00:42:01;1.50;;;1.40;;
1402;SDS011;696;48.546;9.896;2022-08-14T00:44:27;1.85;;;1.70;;
1402;SDS011;696;48.546;9.896;2022-08-14T00:46:54;1.65;;;1.35;;
1402;SDS011;696;48.546;9.896;2022-08-14T00:49:19;2.17;;;1.42;;
1402;SDS011;696;48.546;9.896;2022-08-14T00:51:44;1.60;;;1.10;;
1402;SDS011;696;48.546;9.896;2022-08-14T00:54:10;2.17;;;1.88;;
1402;SDS011;696;48.546;9.896;2022-08-14T00:56:35;1.50;;;1.13;;
1402;SDS011;696;48.546;9.896;2022-08-14T00:59:01;1.33;;;1.15;;
1402;SDS011;696;48.546;9.896;2022-08-14T01:01:27;1.15;;;0.90;;
1402;SDS011;696;48.546;9.896;2022-08-14T01:03:53;1.52;;;1.23;;
1402;SDS011;696;48.546;9.896;2022-08-14T01:06:18;7.85;;;1.60;;
1402;SDS011;696;48.546;9.896;2022-08-14T01:08:45;2.25;;;1.52;;
1402;SDS011;696;48.546;9.896;2022-08-14T01:11:11;2.10;;;1.45;;
1402;SDS011;696;48.546;9.896;2022-08-14T01:13:40;3.00;;;1.42;;
1402;SDS011;696;48.546;9.896;2022-08-14T01:16:07;5.78;;;1.20;;
1402;SDS011;696;48.546;9.896;2022-08-14T01:18:34;1.65;;;1.40;;
1402;SDS011;696;48.546;9.896;2022-08-14T01:21:22;1.50;;;1.40;;
1402;SDS011;696;48.546;9.896;2022-08-14T01:23:59;3.30;;;1.60;;
1402;SDS011;696;48.546;9.896;2022-08-14T01:26:25;1.80;;;1.40;;
1402;SDS011;696;48.546;9.896;2022-08-14T01:28:52;1.45;;;1.35;;
1402;SDS011;696;48.546;9.896;2022-08-14T01:31:24;4.35;;;1.42;;
1402;SDS011;696;48.546;9.896;2022-08-14T01:33:52;1.25;;;1.15;;
1402;SDS011;696;48.546;9.896;2022-08-14T01:36:22;2.30;;;1.50;;
1402;SDS011;696;48.546;9.896;2022-08-14T01:38:48;1.88;;;1.52;;
1402;SDS011;696;48.546;9.896;2022-08-14T01:41:17;2.25;;;1.50;;
1402;SDS011;696;48.546;9.896;2022-08-14T01:46:40;1.23;;;1.07;;
1402;SDS011;696;48.546;9.896;2022-08-14T01:49:09;1.77;;;1.42;;
1402;SDS011;696;48.546;9.896;2022-08-14T01:51:36;5.57;;;1.30;;
1402;SDS011;696;48.546;9.896;2022-08-14T01:54:10;1.75;;;1.65;;
1402;SDS011;696;48.546;9.896;2022-08-14T01:56:37;2.78;;;1.20;;
1402;SDS011;696;48.546;9.896;2022-08-14T01:59:48;3.55;;;1.63;;
1402;SDS011;696;48.546;9.896;2022-08-14T02:01:56;2.78;;;1.88;;
1402;SDS011;696;48.546;9.896;2022-08-14T02:04:24;2.17;;;1.63;;
1402;SDS011;696;48.546;9.896;2022-08-14T02:06:54;2.00;;;1.60;;
1402;SDS011;696;48.546;9.896;2022-08-14T02:09:20;1.83;;;1.27;;
1402;SDS011;696;48.546;9.896;2022-08-14T02:11:45;1.17;;;1.08;;
1402;SDS011;696;48.546;9.896;2022-08-14T02:14:12;2.53;;;1.77;;
1402;SDS011;696;48.546;9.896;2022-08-14T02:16:44;5.55;;;1.58;;
1402;SDS011;696;48.546;9.896;2022-08-14T02:19:16;1.95;;;1.50;;
1402;SDS011;696;48.546;9.896;2022-08-14T02:21:47;3.00;;;1.60;;
1402;SDS011;696;48.546;9.896;2022-08-14T02:24:14;2.97;;;1.35;;
1402;SDS011;696;48.546;9.896;2022-08-14T02:26:41;2.53;;;1.70;;
1402;SDS011;696;48.546;9.896;2022-08-14T02:29:12;1.63;;;1.25;;
1402;SDS011;696;48.546;9.896;2022-08-14T02:31:42;1.67;;;1.48;;
1402;SDS011;696;48.546;9.896;2022-08-14T02:34:13;1.65;;;1.50;;
1402;SDS011;696;48.546;9.896;2022-08-14T02:36:39;1.98;;;1.70;;
1402;SDS011;696;48.546;9.896;2022-08-14T02:39:09;1.67;;;1.35;;
1402;SDS011;696;48.546;9.896;2022-08-14T02:41:34;1.85;;;1.35;;
1402;SDS011;696;48.546;9.896;2022-08-14T02:44:01;1.42;;;1.17;;
1402;SDS011;696;48.546;9.896;2022-08-14T02:46:27;1.42;;;1.33;;
1402;SDS011;696;48.546;9.896;2022-08-14T02:48:54;7.20;;;1.95;;
1402;SDS011;696;48.546;9.896;2022-08-14T02:51:20;1.33;;;1.17;;
1402;SDS011;696;48.546;9.896;2022-08-14T02:53:46;1.75;;;1.23;;
1402;SDS011;696;48.546;9.896;2022-08-14T02:56:13;1.45;;;1.30;;
1402;SDS011;696;48.546;9.896;2022-08-14T02:58:42;3.25;;;1.98;;
1402;SDS011;696;48.546;9.896;2022-08-14T03:01:11;1.63;;;1.23;;
1402;SDS011;696;48.546;9.896;2022-08-14T03:03:37;1.58;;;1.35;;
1402;SDS011;696;48.546;9.896;2022-08-14T03:06:03;2.28;;;1.65;;
1402;SDS011;696;48.546;9.896;2022-08-14T03:08:29;2.25;;;1.75;;
1402;SDS011;696;48.546;9.896;2022-08-14T03:10:58;1.58;;;1.30;;
1402;SDS011;696;48.546;9.896;2022-08-14T03:13:25;9.98;;;1.75;;
1402;SDS011;696;48.546;9.896;2022-08-14T03:15:51;1.80;;;1.15;;
1402;SDS011;696;48.546;9.896;2022-08-14T03:18:18;4.65;;;1.48;;
1402;SDS011;696;48.546;9.896;2022-08-14T03:20:46;2.13;;;1.35;;
1402;SDS011;696;48.546;9.896;2022-08-14T03:23:11;1.58;;;1.17;;
1402;SDS011;696;48.546;9.896;2022-08-14T03:25:37;11.27;;;2.05;;
1402;SDS011;696;48.546;9.896;2022-08-14T03:28:06;2.67;;;1.52;;
1402;SDS011;696;48.546;9.896;2022-08-14T03:30:33;1.88;;;1.30;;
1402;SDS011;696;48.546;9.896;2022-08-14T03:32:59;3.35;;;1.30;;
1402;SDS011;696;48.546;9.896;2022-08-14T03:35:25;1.30;;;1.20;;
1402;SDS011;696;48.546;9.896;2022-08-14T03:37:51;1.73;;;1.33;;
1402;SDS011;696;48.546;9.896;2022-08-14T03:40:18;2.22;;;1.30;;
1402;SDS011;696;48.546;9.896;2022-08-14T03:42:44;2.03;;;1.40;;
1402;SDS011;696;48.546;9.896;2022-08-14T03:45:09;3.75;;;1.50;;
1402;SDS011;696;48.546;9.896;2022-08-14T03:47:34;2.97;;;1.45;;
1402;SDS011;696;48.546;9.896;2022-08-14T03:50:04;1.70;;;1.30;;
1402;SDS011;696;48.546;9.896;2022-08-14T03:52:33;2.80;;;1.50;;
1402;SDS011;696;48.546;9.896;2022-08-14T03:54:59;1.40;;;1.30;;
1402;SDS011;696;48.546;9.896;2022-08-14T03:57:27;2.50;;;1.65;;
1402;SDS011;696;48.546;9.896;2022-08-14T03:59:56;1.73;;;1.45;;
1402;SDS011;696;48.546;9.896;2022-08-14T04:02:21;1.58;;;1.48;;
1402;SDS011;696;48.546;9.896;2022-08-14T04:04:47;1.67;;;1.50;;
1402;SDS011;696;48.546;9.896;2022-08-14T04:07:13;1.50;;;1.40;;
1402;SDS011;696;48.546;9.896;2022-08-14T04:09:39;5.25;;;1.85;;
1402;SDS011;696;48.546;9.896;2022-08-14T04:12:04;4.38;;;1.83;;
1402;SDS011;696;48.546;9.896;2022-08-14T04:14:30;1.52;;;1.35;;
1402;SDS011;696;48.546;9.896;2022-08-14T04:16:55;2.30;;;1.40;;
1402;SDS011;696;48.546;9.896;2022-08-14T04:19:21;1.48;;;1.30;;
1402;SDS011;696;48.546;9.896;2022-08-14T04:21:48;9.63;;;1.40;;
1402;SDS011;696;48.546;9.896;2022-08-14T04:24:15;2.88;;;1.67;;
1402;SDS011;696;48.546;9.896;2022-08-14T04:26:41;2.00;;;1.58;;
1402;SDS011;696;48.546;9.896;2022-08-14T04:29:09;1.40;;;1.30;;
1402;SDS011;696;48.546;9.896;2022-08-14T04:31:36;2.05;;;1.70;;
1402;SDS011;696;48.546;9.896;2022-08-14T04:34:03;4.82;;;1.55;;
1402;SDS011;696;48.546;9.896;2022-08-14T04:36:29;1.45;;;1.35;;
1402;SDS011;696;48.546;9.896;2022-08-14T04:38:54;2.15;;;1.52;;
1402;SDS011;696;48.546;9.896;2022-08-14T04:44:22;2.42;;;1.50;;
1402;SDS011;696;48.546;9.896;2022-08-14T04:46:48;1.70;;;1.60;;
1402;SDS011;696;48.546;9.896;2022-08-14T04:51:57;1.23;;;1.13;;
1402;SDS011;696;48.546;9.896;2022-08-14T04:54:24;4.20;;;1.30;;
1402;SDS011;696;48.546;9.896;2022-08-14T04:56:51;3.55;;;2.03;;
1402;SDS011;696;48.546;9.896;2022-08-14T04:59:17;1.58;;;1.48;;
1402;SDS011;696;48.546;9.896;2022-08-14T05:01:42;2.13;;;1.45;;
1402;SDS011;696;48.546;9.896;2022-08-14T05:04:08;3.20;;;1.80;;
1402;SDS011;696;48.546;9.896;2022-08-14T05:06:34;2.20;;;1.40;;
1402;SDS011;696;48.546;9.896;2022-08-14T05:08:59;3.28;;;2.15;;
1402;SDS011;696;48.546;9.896;2022-08-14T05:11:25;1.52;;;1.42;;
1402;SDS011;696;48.546;9.896;2022-08-14T05:13:51;6.30;;;1.75;;
1402;SDS011;696;48.546;9.896;2022-08-14T05:16:16;2.35;;;1.38;;
1402;SDS011;696;48.546;9.896;2022-08-14T05:18:42;2.05;;;1.83;;
1402;SDS011;696;48.546;9.896;2022-08-14T05:21:08;3.53;;;1.45;;
1402;SDS011;696;48.546;9.896;2022-08-14T05:23:35;1.95;;;1.75;;
1402;SDS011;696;48.546;9.896;2022-08-14T05:26:03;2.63;;;1.58;;
1402;SDS011;696;48.546;9.896;2022-08-14T05:28:38;1.73;;;1.60;;
1402;SDS011;696;48.546;9.896;2022-08-14T05:31:08;2.63;;;1.77;;
1402;SDS011;696;48.546;9.896;2022-08-14T05:33:35;2.13;;;1.48;;
1402;SDS011;696;48.546;9.896;2022-08-14T05:36:03;8.95;;;1.40;;
1402;SDS011;696;48.546;9.896;2022-08-14T05:38:31;1.33;;;1.20;;
1402;SDS011;696;48.546;9.896;2022-08-14T05:41:00;1.48;;;1.23;;
1402;SDS011;696;48.546;9.896;2022-08-14T05:43:26;0.93;;;0.90;;
1402;SDS011;696;48.546;9.896;2022-08-14T05:45:53;3.35;;;1.52;;
1402;SDS011;696;48.546;9.896;2022-08-14T05:48:18;1.58;;;1.48;;
1402;SDS011;696;48.546;9.896;2022-08-14T05:50:44;2.67;;;1.75;;
1402;SDS011;696;48.546;9.896;2022-08-14T05:53:09;2.53;;;1.85;;
1402;SDS011;696;48.546;9.896;2022-08-14T05:55:35;3.05;;;1.67;;
1402;SDS011;696;48.546;9.896;2022-08-14T05:58:02;5.60;;;1.90;;
1402;SDS011;696;48.546;9.896;2022-08-14T06:00:30;1.60;;;1.42;;
1402;SDS011;696;48.546;9.896;2022-08-14T06:02:58;1.55;;;1.45;;
1402;SDS011;696;48.546;9.896;2022-08-14T06:05:24;2.15;;;1.42;;
1402;SDS011;696;48.546;9.896;2022-08-14T06:07:50;3.28;;;1.77;;
1402;SDS011;696;48.546;9.896;2022-08-14T06:10:15;2.30;;;1.80;;
1402;SDS011;696;48.546;9.896;2022-08-14T06:12:41;2.78;;;1.70;;
1402;SDS011;696;48.546;9.896;2022-08-14T06:15:06;2.85;;;1.85;;
1402;SDS011;696;48.546;9.896;2022-08-14T06:17:42;3.42;;;2.65;;
1402;SDS011;696;48.546;9.896;2022-08-14T06:20:08;5.78;;;2.20;;
1402;SDS011;696;48.546;9.896;2022-08-14T06:22:33;5.20;;;2.40;;
1402;SDS011;696;48.546;9.896;2022-08-14T06:24:59;5.63;;;2.40;;
1402;SDS011;696;48.546;9.896;2022-08-14T06:27:24;3.45;;;2.78;;
1402;SDS011;696;48.546;9.896;2022-08-14T06:29:49;5.82;;;2.05;;
1402;SDS011;696;48.546;9.896;2022-08-14T06:32:15;2.38;;;1.50;;
1402;SDS011;696;48.546;9.896;2022-08-14T06:34:40;3.83;;;1.75;;
1402;SDS011;696;48.546;9.896;2022-08-14T06:37:05;2.85;;;2.08;;
1402;SDS011;696;48.546;9.896;2022-08-14T06:39:31;1.98;;;1.67;;
1402;SDS011;696;48.546;9.896;2022-08-14T06:41:58;2.38;;;1.80;;
1402;SDS011;696;48.546;9.896;2022-08-14T06:44:23;4.40;;;2.10;;
1402;SDS011;696;48.546;9.896;2022-08-14T06:46:49;2.40;;;1.55;;
1402;SDS011;696;48.546;9.896;2022-08-14T06:49:14;3.53;;;2.00;;
1402;SDS011;696;48.546;9.896;2022-08-14T06:51:39;2.13;;;1.70;;
1402;SDS011;696;48.546;9.896;2022-08-14T06:54:06;2.10;;;1.75;;
1402;SDS011;696;48.546;9.896;2022-08-14T06:56:31;2.53;;;1.52;;
1402;SDS011;696;48.546;9.896;2022-08-14T06:58:57;2.22;;;1.33;;
1402;SDS011;696;48.546;9.896;2022-08-14T07:01:22;1.50;;;1.13;;
1402;SDS011;696;48.546;9.896;2022-08-14T07:07:10;1.63;;;1.35;;
1402;SDS011;696;48.546;9.896;2022-08-14T07:09:35;1.77;;;1.50;;
1402;SDS011;696;48.546;9.896;2022-08-14T07:12:00;2.03;;;1.10;;
1402;SDS011;696;48.546;9.896;2022-08-14T07:14:26;2.22;;;1.63;;
1402;SDS011;696;48.546;9.896;2022-08-14T07:16:51;2.50;;;1.35;;
1402;SDS011;696;48.546;9.896;2022-08-14T07:19:17;2.15;;;1.48;;
1402;SDS011;696;48.546;9.896;2022-08-14T07:21:42;2.80;;;1.52;;
1402;SDS011;696;48.546;9.896;2022-08-14T07:24:08;1.77;;;1.60;;
1402;SDS011;696;48.546;9.896;2022-08-14T07:26:33;0.80;;;0.80;;
1402;SDS011;696;48.546;9.896;2022-08-14T07:28:59;3.72;;;1.40;;
1402;SDS011;696;48.546;9.896;2022-08-14T07:31:24;2.88;;;1.25;;
1402;SDS011;696;48.546;9.896;2022-08-14T07:33:50;1.23;;;1.00;;
1402;SDS011;696;48.546;9.896;2022-08-14T07:36:16;1.50;;;1.40;;
1402;SDS011;696;48.546;9.896;2022-08-14T07:38:42;2.05;;;1.13;;
1402;SDS011;696;48.546;9.896;2022-08-14T07:41:08;5.00;;;1.30;;
1402;SDS011;696;48.546;9.896;2022-08-14T07:43:35;2.28;;;1.15;;
1402;SDS011;696;48.546;9.896;2022-08-14T07:46:01;1.27;;;1.08;;
1402;SDS011;696;48.546;9.896;2022-08-14T07:48:27;2.15;;;1.27;;
1402;SDS011;696;48.546;9.896;2022-08-14T07:50:53;2.13;;;1.20;;
1402;SDS011;696;48.546;9.896;2022-08-14T07:53:18;3.53;;;1.25;;
1402;SDS011;696;48.546;9.896;2022-08-14T07:55:44;1.48;;;1.10;;
1402;SDS011;696;48.546;9.896;2022-08-14T07:58:13;1.67;;;1.08;;
1402;SDS011;696;48.546;9.896;2022-08-14T08:00:38;1.30;;;1.02;;
1402;SDS011;696;48.546;9.896;2022-08-14T08:03:07;1.60;;;1.00;;
1402;SDS011;696;48.546;9.896;2022-08-14T08:05:36;1.65;;;1.08;;
1402;SDS011;696;48.546;9.896;2022-08-14T08:08:04;1.45;;;1.20;;
1402;SDS011;696;48.546;9.896;2022-08-14T08:10:30;2.60;;;1.45;;
1402;SDS011;696;48.546;9.896;2022-08-14T08:12:58;1.80;;;1.27;;
1402;SDS011;696;48.546;9.896;2022-08-14T08:15:35;1.45;;;0.90;;
1402;SDS011;696;48.546;9.896;2022-08-14T08:18:03;10.60;;;1.08;;
1402;SDS011;696;48.546;9.896;2022-08-14T08:20:36;1.38;;;0.90;;
1402;SDS011;696;48.546;9.896;2022-08-14T08:23:05;1.80;;;1.05;;
1402;SDS011;696;48.546;9.896;2022-08-14T08:25:33;1.30;;;0.80;;
1402;SDS011;696;48.546;9.896;2022-08-14T08:28:03;3.08;;;1.20;;
1402;SDS011;696;48.546;9.896;2022-08-14T08:30:33;1.63;;;0.88;;
1402;SDS011;696;48.546;9.896;2022-08-14T08:33:01;0.80;;;0.80;;
1402;SDS011;696;48.546;9.896;2022-08-14T08:35:29;1.45;;;0.88;;
1402;SDS011;696;48.546;9.896;2022-08-14T08:38:07;0.65;;;0.65;;
1402;SDS011;696;48.546;9.896;2022-08-14T08:43:00;1.58;;;1.15;;
1402;SDS011;696;48.546;9.896;2022-08-14T08:45:31;0.77;;;0.68;;
1402;SDS011;696;48.546;9.896;2022-08-14T08:48:00;1.33;;;0.93;;
1402;SDS011;696;48.546;9.896;2022-08-14T08:50:28;0.90;;;0.90;;
1402;SDS011;696;48.546;9.896;2022-08-14T08:53:00;1.10;;;0.90;;
1402;SDS011;696;48.546;9.896;2022-08-14T08:55:31;2.10;;;0.95;;
1402;SDS011;696;48.546;9.896;2022-08-14T08:58:02;0.80;;;0.60;;
1402;SDS011;696;48.546;9.896;2022-08-14T09:00:30;1.98;;;1.15;;
1402;SDS011;696;48.546;9.896;2022-08-14T09:03:02;2.08;;;1.15;;
1402;SDS011;696;48.546;9.896;2022-08-14T09:05:32;1.85;;;1.02;;
1402;SDS011;696;48.546;9.896;2022-08-14T09:08:09;0.98;;;0.75;;
1402;SDS011;696;48.546;9.896;2022-08-14T09:10:36;1.17;;;0.70;;
1402;SDS011;696;48.546;9.896;2022-08-14T09:13:01;1.55;;;0.90;;
1402;SDS011;696;48.546;9.896;2022-08-14T09:15:27;1.20;;;0.63;;
1402;SDS011;696;48.546;9.896;2022-08-14T09:17:52;0.85;;;0.82;;
1402;SDS011;696;48.546;9.896;2022-08-14T09:20:18;3.55;;;1.10;;
1402;SDS011;696;48.546;9.896;2022-08-14T09:22:43;0.82;;;0.55;;
1402;SDS011;696;48.546;9.896;2022-08-14T09:25:09;1.00;;;0.73;;
1402;SDS011;696;48.546;9.896;2022-08-14T09:27:35;1.00;;;0.70;;
1402;SDS011;696;48.546;9.896;2022-08-14T09:30:02;1.80;;;1.30;;
1402;SDS011;696;48.546;9.896;2022-08-14T09:32:34;1.15;;;1.00;;
1402;SDS011;696;48.546;9.896;2022-08-14T09:35:22;1.35;;;0.68;;
1402;SDS011;696;48.546;9.896;2022-08-14T09:38:04;0.88;;;0.88;;
1402;SDS011;696;48.546;9.896;2022-08-14T09:40:50;1.20;;;0.88;;
1402;SDS011;696;48.546;9.896;2022-08-14T09:43:29;1.80;;;1.15;;
1402;SDS011;696;48.546;9.896;2022-08-14T09:46:08;3.13;;;0.63;;
1402;SDS011;696;48.546;9.896;2022-08-14T09:48:34;1.73;;;1.20;;
1402;SDS011;696;48.546;9.896;2022-08-14T09:51:01;1.70;;;0.80;;
1402;SDS011;696;48.546;9.896;2022-08-14T09:56:11;1.10;;;0.93;;
1402;SDS011;696;48.546;9.896;2022-08-14T10:01:21;1.00;;;0.88;;
1402;SDS011;696;48.546;9.896;2022-08-14T10:06:18;1.73;;;0.95;;
1402;SDS011;696;48.546;9.896;2022-08-14T10:08:48;1.40;;;0.90;;
1402;SDS011;696;48.546;9.896;2022-08-14T10:13:43;0.70;;;0.70;;
1402;SDS011;696;48.546;9.896;2022-08-14T10:16:09;1.90;;;1.05;;
1402;SDS011;696;48.546;9.896;2022-08-14T10:18:35;1.90;;;0.93;;
1402;SDS011;696;48.546;9.896;2022-08-14T10:21:01;0.93;;;0.80;;
1402;SDS011;696;48.546;9.896;2022-08-14T10:23:37;1.95;;;0.88;;
1402;SDS011;696;48.546;9.896;2022-08-14T10:26:06;1.10;;;1.00;;
1402;SDS011;696;48.546;9.896;2022-08-14T10:28:39;1.95;;;1.52;;
1402;SDS011;696;48.546;9.896;2022-08-14T10:33:56;2.10;;;1.13;;
1402;SDS011;696;48.546;9.896;2022-08-14T10:36:25;1.15;;;1.00;;
1402;SDS011;696;48.546;9.896;2022-08-14T10:38:58;1.20;;;1.10;;
1402;SDS011;696;48.546;9.896;2022-08-14T10:41:33;1.98;;;1.50;;
1402;SDS011;696;48.546;9.896;2022-08-14T10:44:07;1.27;;;0.82;;
1402;SDS011;696;48.546;9.896;2022-08-14T10:46:38;1.13;;;0.80;;
1402;SDS011;696;48.546;9.896;2022-08-14T10:49:05;1.83;;;1.17;;
1402;SDS011;696;48.546;9.896;2022-08-14T10:51:33;5.18;;;0.90;;
1402;SDS011;696;48.546;9.896;2022-08-14T10:54:03;1.85;;;1.02;;
1402;SDS011;696;48.546;9.896;2022-08-14T10:56:32;1.27;;;1.17;;
1402;SDS011;696;48.546;9.896;2022-08-14T10:59:00;1.20;;;1.10;;
1402;SDS011;696;48.546;9.896;2022-08-14T11:01:30;0.82;;;0.82;;
1402;SDS011;696;48.546;9.896;2022-08-14T11:03:57;0.77;;;0.77;;
1402;SDS011;696;48.546;9.896;2022-08-14T11:06:22;0.85;;;0.85;;
1402;SDS011;696;48.546;9.896;2022-08-14T11:08:48;1.42;;;1.13;;
1402;SDS011;696;48.546;9.896;2022-08-14T11:11:14;1.95;;;0.98;;
1402;SDS011;696;48.546;9.896;2022-08-14T11:13:41;1.80;;;1.05;;
1402;SDS011;696;48.546;9.896;2022-08-14T11:16:11;0.95;;;0.82;;
1402;SDS011;696;48.546;9.896;2022-08-14T11:18:40;1.05;;;0.93;;
1402;SDS011;696;48.546;9.896;2022-08-14T11:21:08;0.98;;;0.90;;
1402;SDS011;696;48.546;9.896;2022-08-14T11:23:38;1.85;;;1.08;;
1402;SDS011;696;48.546;9.896;2022-08-14T11:26:04;0.70;;;0.70;;
1402;SDS011;696;48.546;9.896;2022-08-14T11:28:33;1.20;;;0.88;;
1402;SDS011;696;48.546;9.896;2022-08-14T11:31:02;1.30;;;0.70;;
1402;SDS011;696;48.546;9.896;2022-08-14T11:33:29;1.92;;;1.02;;
1402;SDS011;696;48.546;9.896;2022-08-14T11:36:00;0.60;;;0.60;;
1402;SDS011;696;48.546;9.896;2022-08-14T11:38:40;2.38;;;0.90;;
1402;SDS011;696;48.546;9.896;2022-08-14T11:41:06;1.38;;;0.93;;
1402;SDS011;696;48.546;9.896;2022-08-14T11:43:40;2.92;;;1.08;;
1402;SDS011;696;48.546;9.896;2022-08-14T11:46:06;1.13;;;0.90;;
1402;SDS011;696;48.546;9.896;2022-08-14T11:48:32;1.80;;;0.80;;
1402;SDS011;696;48.546;9.896;2022-08-14T11:51:12;1.85;;;0.73;;
1402;SDS011;696;48.546;9.896;2022-08-14T11:53:42;1.35;;;0.80;;
1402;SDS011;696;48.546;9.896;2022-08-14T11:56:14;0.50;;;0.43;;
1402;SDS011;696;48.546;9.896;2022-08-14T11:58:40;0.68;;;0.68;;
1402;SDS011;696;48.546;9.896;2022-08-14T12:01:08;1.10;;;0.88;;
1402;SDS011;696;48.546;9.896;2022-08-14T12:03:41;0.82;;;0.77;;
1402;SDS011;696;48.546;9.896;2022-08-14T12:08:34;0.52;;;0.47;;
1402;SDS011;696;48.546;9.896;2022-08-14T12:11:00;0.52;;;0.40;;
1402;SDS011;696;48.546;9.896;2022-08-14T12:13:27;0.80;;;0.50;;
1402;SDS011;696;48.546;9.896;2022-08-14T12:15:58;0.70;;;0.70;;
1402;SDS011;696;48.546;9.896;2022-08-14T12:18:33;1.73;;;0.80;;
1402;SDS011;696;48.546;9.896;2022-08-14T12:21:36;0.65;;;0.65;;
1402;SDS011;696;48.546;9.896;2022-08-14T12:24:02;1.30;;;0.77;;
1402;SDS011;696;48.546;9.896;2022-08-14T12:26:29;1.27;;;0.57;;
1402;SDS011;696;48.546;9.896;2022-08-14T12:29:07;1.42;;;0.90;;
1402;SDS011;696;48.546;9.896;2022-08-14T12:31:35;0.88;;;0.50;;
1402;SDS011;696;48.546;9.896;2022-08-14T12:34:01;0.60;;;0.60;;
1402;SDS011;696;48.546;9.896;2022-08-14T12:36:32;0.75;;;0.65;;
1402;SDS011;696;48.546;9.896;2022-08-14T12:39:04;0.45;;;0.45;;
1402;SDS011;696;48.546;9.896;2022-08-14T12:41:48;3.38;;;0.80;;
1402;SDS011;696;48.546;9.896;2022-08-14T12:44:16;1.60;;;0.60;;
1402;SDS011;696;48.546;9.896;2022-08-14T12:46:45;0.52;;;0.50;;
1402;SDS011;696;48.546;9.896;2022-08-14T12:49:14;0.40;;;0.40;;
1402;SDS011;696;48.546;9.896;2022-08-14T12:51:41;0.57;;;0.50;;
1402;SDS011;696;48.546;9.896;2022-08-14T12:54:14;1.38;;;0.73;;
1402;SDS011;696;48.546;9.896;2022-08-14T12:56:41;1.38;;;0.75;;
1402;SDS011;696;48.546;9.896;2022-08-14T12:59:07;7.07;;;1.45;;
1402;SDS011;696;48.546;9.896;2022-08-14T13:01:33;0.70;;;0.55;;
1402;SDS011;696;48.546;9.896;2022-08-14T13:04:07;0.52;;;0.43;;
1402;SDS011;696;48.546;9.896;2022-08-14T13:06:38;0.70;;;0.52;;
1402;SDS011;696;48.546;9.896;2022-08-14T13:09:06;1.15;;;0.68;;
1402;SDS011;696;48.546;9.896;2022-08-14T13:11:36;0.55;;;0.40;;
1402;SDS011;696;48.546;9.896;2022-08-14T13:14:05;0.50;;;0.40;;
1402;SDS011;696;48.546;9.896;2022-08-14T13:16:30;0.35;;;0.35;;
1402;SDS011;696;48.546;9.896;2022-08-14T13:18:56;1.48;;;0.98;;
1402;SDS011;696;48.546;9.896;2022-08-14T13:21:26;3.28;;;0.70;;
1402;SDS011;696;48.546;9.896;2022-08-14T13:23:53;1.95;;;0.60;;
1402;SDS011;696;48.546;9.896;2022-08-14T13:26:18;0.65;;;0.43;;
1402;SDS011;696;48.546;9.896;2022-08-14T13:28:45;0.50;;;0.50;;
1402;SDS011;696;48.546;9.896;2022-08-14T13:31:12;3.03;;;0.60;;
1402;SDS011;696;48.546;9.896;2022-08-14T13:33:38;1.13;;;0.70;;
1402;SDS011;696;48.546;9.896;2022-08-14T13:36:04;0.57;;;0.57;;
1402;SDS011;696;48.546;9.896;2022-08-14T13:38:29;0.47;;;0.40;;
1402;SDS011;696;48.546;9.896;2022-08-14T13:40:55;0.77;;;0.35;;
1402;SDS011;696;48.546;9.896;2022-08-14T13:43:21;0.70;;;0.57;;
1402;SDS011;696;48.546;9.896;2022-08-14T13:45:51;0.70;;;0.70;;
1402;SDS011;696;48.546;9.896;2022-08-14T13:48:19;0.30;;;0.30;;
1402;SDS011;696;48.546;9.896;2022-08-14T13:50:44;0.50;;;0.50;;
1402;SDS011;696;48.546;9.896;2022-08-14T13:53:12;0.45;;;0.43;;
1402;SDS011;696;48.546;9.896;2022-08-14T13:55:38;0.57;;;0.57;;
1402;SDS011;696;48.546;9.896;2022-08-14T13:58:04;0.65;;;0.60;;
1402;SDS011;696;48.546;9.896;2022-08-14T14:00:31;0.55;;;0.50;;
1402;SDS011;696;48.546;9.896;2022-08-14T14:02:58;1.08;;;0.60;;
1402;SDS011;696;48.546;9.896;2022-08-14T14:05:23;1.30;;;0.45;;
1402;SDS011;696;48.546;9.896;2022-08-14T14:07:50;0.80;;;0.70;;
1402;SDS011;696;48.546;9.896;2022-08-14T14:10:17;0.63;;;0.47;;
1402;SDS011;696;48.546;9.896;2022-08-14T14:12:45;1.65;;;0.55;;
1402;SDS011;696;48.546;9.896;2022-08-14T14:15:12;0.70;;;0.55;;
1402;SDS011;696;48.546;9.896;2022-08-14T14:17:40;0.47;;;0.47;;
1402;SDS011;696;48.546;9.896;2022-08-14T14:20:07;1.15;;;0.82;;
1402;SDS011;696;48.546;9.896;2022-08-14T14:22:43;1.33;;;0.60;;
1402;SDS011;696;48.546;9.896;2022-08-14T14:25:11;1.10;;;0.75;;
1402;SDS011;696;48.546;9.896;2022-08-14T14:27:39;0.70;;;0.70;;
1402;SDS011;696;48.546;9.896;2022-08-14T14:30:06;1.67;;;0.77;;
1402;SDS011;696;48.546;9.896;2022-08-14T14:32:32;0.65;;;0.60;;
1402;SDS011;696;48.546;9.896;2022-08-14T14:34:58;0.80;;;0.65;;
1402;SDS011;696;48.546;9.896;2022-08-14T14:37:28;1.27;;;0.60;;
1402;SDS011;696;48.546;9.896;2022-08-14T14:39:54;1.48;;;0.85;;
1402;SDS011;696;48.546;9.896;2022-08-14T14:42:27;0.60;;;0.47;;
1402;SDS011;696;48.546;9.896;2022-08-14T14:44:55;1.08;;;0.70;;
1402;SDS011;696;48.546;9.896;2022-08-14T14:47:29;1.27;;;0.60;;
1402;SDS011;696;48.546;9.896;2022-08-14T14:49:57;1.27;;;0.60;;
1402;SDS011;696;48.546;9.896;2022-08-14T14:52:24;0.77;;;0.50;;
1402;SDS011;696;48.546;9.896;2022-08-14T14:54:50;0.43;;;0.40;;
1402;SDS011;696;48.546;9.896;2022-08-14T14:57:16;0.75;;;0.52;;
1402;SDS011;696;48.546;9.896;2022-08-14T14:59:42;1.23;;;1.00;;
1402;SDS011;696;48.546;9.896;2022-08-14T15:02:08;2.10;;;0.70;;
1402;SDS011;696;48.546;9.896;2022-08-14T15:04:35;1.05;;;0.73;;
1402;SDS011;696;48.546;9.896;2022-08-14T15:07:01;1.08;;;0.55;;
1402;SDS011;696;48.546;9.896;2022-08-14T15:09:28;1.08;;;0.60;;
1402;SDS011;696;48.546;9.896;2022-08-14T15:11:53;1.38;;;0.50;;
1402;SDS011;696;48.546;9.896;2022-08-14T15:14:19;0.63;;;0.45;;
1402;SDS011;696;48.546;9.896;2022-08-14T15:16:45;0.45;;;0.40;;
1402;SDS011;696;48.546;9.896;2022-08-14T15:19:11;3.00;;;0.57;;
1402;SDS011;696;48.546;9.896;2022-08-14T15:21:36;0.50;;;0.50;;
1402;SDS011;696;48.546;9.896;2022-08-14T15:24:02;2.88;;;0.50;;
1402;SDS011;696;48.546;9.896;2022-08-14T15:26:28;0.40;;;0.40;;
1402;SDS011;696;48.546;9.896;2022-08-14T15:28:53;0.55;;;0.50;;
1402;SDS011;696;48.546;9.896;2022-08-14T15:31:18;1.90;;;0.73;;
1402;SDS011;696;48.546;9.896;2022-08-14T15:33:44;0.57;;;0.57;;
1402;SDS011;696;48.546;9.896;2022-08-14T15:36:28;0.50;;;0.50;;
1402;SDS011;696;48.546;9.896;2022-08-14T15:38:54;1.55;;;0.65;;
1402;SDS011;696;48.546;9.896;2022-08-14T15:41:20;0.30;;;0.30;;
1402;SDS011;696;48.546;9.896;2022-08-14T15:43:45;0.32;;;0.30;;
1402;SDS011;696;48.546;9.896;2022-08-14T15:46:11;0.55;;;0.55;;
1402;SDS011;696;48.546;9.896;2022-08-14T15:48:36;0.50;;;0.50;;
1402;SDS011;696;48.546;9.896;2022-08-14T15:51:02;2.85;;;0.88;;
1402;SDS011;696;48.546;9.896;2022-08-14T15:53:28;1.17;;;0.50;;
1402;SDS011;696;48.546;9.896;2022-08-14T15:55:54;0.45;;;0.45;;
1402;SDS011;696;48.546;9.896;2022-08-14T15:58:20;0.80;;;0.38;;
1402;SDS011;696;48.546;9.896;2022-08-14T16:00:47;0.55;;;0.50;;
1402;SDS011;696;48.546;9.896;2022-08-14T16:03:30;0.80;;;0.70;;